Time;durP1;ratioP1;P1;durP2;ratioP2;P2;SDS_P1;SDS_P2;PMS_P1;PMS_P2;Temp;Humidity;BMP_temperature;BMP_pressure;BME280_temperature;BME280_humidity;BME280_pressure;Samples;Min_cycle;Max_cycle;Signal;HPM_P1;HPM_P2
2023/10/04 00:01:16;;;;;;;17.15;7.68;;;435.60;2355.20;;;;;;5052142;28;20095;-77
2023/10/04 00:03:43;;;;;;;16.27;7.97;;;435.50;2355.20;;;;;;5053959;28;20025;-77
2023/10/04 00:06:09;;;;;;;16.67;8.07;;;435.60;2355.20;;;;;;5052482;28;20028;-77
2023/10/04 00:08:35;;;;;;;14.45;7.00;;;435.50;2355.20;;;;;;5052151;28;20021;-78
2023/10/04 00:11:02;;;;;;;14.27;7.38;;;435.40;2355.20;;;;;;5052834;28;20029;-77
2023/10/04 00:13:28;;;;;;;12.20;5.95;;;435.50;2355.20;;;;;;5052397;28;20055;-78
2023/10/04 00:15:54;;;;;;;14.68;7.28;;;435.30;2355.20;;;;;;5052170;28;20063;-78
2023/10/04 00:18:20;;;;;;;19.33;8.07;;;435.40;2355.20;;;;;;5051909;28;20049;-78
2023/10/04 00:20:45;;;;;;;14.40;6.78;;;435.40;2355.20;;;;;;5071633;28;20063;-78
2023/10/04 00:23:13;;;;;;;15.00;7.80;;;435.40;2355.20;;;;;;5072227;28;20072;-77
2023/10/04 00:25:39;;;;;;;18.98;7.55;;;435.40;2355.20;;;;;;5072254;28;20027;-78
2023/10/04 00:28:05;;;;;;;16.08;6.97;;;435.40;2355.20;;;;;;5072242;28;20086;-77
2023/10/04 00:30:32;;;;;;;15.77;6.53;;;435.40;2355.20;;;;;;5072229;28;20095;-77
2023/10/04 00:33:02;;;;;;;14.32;7.05;;;435.50;2355.20;;;;;;5072398;28;20032;-78
2023/10/04 00:35:28;;;;;;;14.75;6.88;;;435.40;2355.20;;;;;;5077629;28;20047;-76
2023/10/04 00:37:57;;;;;;;23.65;8.07;;;435.50;2355.20;;;;;;5088552;28;20028;-77
2023/10/04 00:40:28;;;;;;;14.13;7.43;;;435.40;2355.20;;;;;;5084107;28;20036;-77
2023/10/04 00:42:55;;;;;;;12.93;7.55;;;435.50;2355.20;;;;;;5071886;28;20044;-77
2023/10/04 00:45:23;;;;;;;14.18;6.82;;;435.40;2355.20;;;;;;5071771;28;20024;-77
2023/10/04 00:47:52;;;;;;;22.52;7.82;;;435.40;2355.20;;;;;;5071953;28;20403;-77
2023/10/04 00:50:32;;;;;;;13.68;6.72;;;435.40;2355.20;;;;;;5073198;28;20039;-77
2023/10/04 00:53:11;;;;;;;14.40;7.75;;;435.30;2355.20;;;;;;5071641;28;20458;-77
2023/10/04 00:55:40;;;;;;;17.60;7.00;;;435.30;2355.20;;;;;;5073131;28;20025;-77
2023/10/04 00:58:07;;;;;;;15.90;7.88;;;435.30;2355.20;;;;;;5071618;28;20020;-77
2023/10/04 01:00:34;;;;;;;17.08;7.63;;;435.30;2355.20;;;;;;5071203;28;20489;-77
2023/10/04 01:03:00;;;;;;;15.93;6.70;;;435.30;2355.20;;;;;;5071832;28;20040;-77
2023/10/04 01:05:27;;;;;;;16.67;7.38;;;435.30;2355.20;;;;;;5071572;28;20025;-77
2023/10/04 01:07:57;;;;;;;24.70;7.95;;;435.30;2355.20;;;;;;5071588;28;20040;-78
2023/10/04 01:10:34;;;;;;;17.05;7.72;;;435.20;2355.20;;;;;;5071633;28;20272;-77
2023/10/04 01:13:05;;;;;;;25.70;8.32;;;435.20;2355.20;;;;;;5071861;28;20575;-77
2023/10/04 01:15:36;;;;;;;14.85;7.65;;;435.20;2355.20;;;;;;5071502;28;20102;-78
2023/10/04 01:18:07;;;;;;;17.13;7.53;;;435.20;2355.20;;;;;;5071021;28;20047;-77
2023/10/04 01:20:34;;;;;;;18.83;7.88;;;435.20;2355.20;;;;;;5071492;28;20021;-77
2023/10/04 01:23:02;;;;;;;16.75;6.97;;;435.20;2355.20;;;;;;5072659;28;20097;-77
2023/10/04 01:25:32;;;;;;;20.85;9.10;;;435.20;2355.20;;;;;;5075564;28;20016;-77
2023/10/04 01:28:00;;;;;;;18.40;8.07;;;435.20;2355.20;;;;;;5074981;28;20032;-77
2023/10/04 01:30:26;;;;;;;15.27;6.85;;;435.20;2355.20;;;;;;5076521;28;20015;-77
2023/10/04 01:32:53;;;;;;;16.10;6.95;;;435.30;2355.20;;;;;;5075178;28;20389;-78
2023/10/04 01:35:27;;;;;;;17.52;6.90;;;435.20;2355.20;;;;;;5074948;28;20509;-77
2023/10/04 01:37:53;;;;;;;18.80;7.50;;;435.20;2355.20;;;;;;5075147;28;20076;-77
2023/10/04 01:40:25;;;;;;;14.65;6.97;;;435.30;2355.20;;;;;;5074424;28;20040;-77
2023/10/04 01:42:55;;;;;;;18.50;7.55;;;435.20;2355.20;;;;;;5074813;28;20551;-77
2023/10/04 01:45:21;;;;;;;14.30;6.57;;;435.20;2355.20;;;;;;5075958;28;20021;-77
2023/10/04 01:47:49;;;;;;;14.73;6.82;;;410.50;2355.20;;;;;;5076312;28;20025;-77
2023/10/04 01:50:15;;;;;;;15.35;7.15;;;410.50;2355.20;;;;;;5076317;28;20486;-77
2023/10/04 01:52:49;;;;;;;20.67;7.35;;;410.50;2355.20;;;;;;5075810;28;20056;-77
2023/10/04 01:55:17;;;;;;;15.52;7.32;;;410.50;2355.20;;;;;;5076176;28;20042;-78
2023/10/04 01:57:43;;;;;;;15.43;7.75;;;410.40;2355.20;;;;;;5076258;28;20543;-77
2023/10/04 02:00:10;;;;;;;15.77;7.32;;;410.40;2355.20;;;;;;5074306;28;20385;-77
2023/10/04 02:02:40;;;;;;;21.65;8.45;;;410.30;2355.20;;;;;;5076002;28;20032;-77
2023/10/04 02:05:14;;;;;;;15.27;7.43;;;410.30;2355.20;;;;;;5075878;28;20021;-77
2023/10/04 02:07:39;;;;;;;13.88;6.90;;;410.30;2355.20;;;;;;5074527;28;20535;-77
2023/10/04 02:10:08;;;;;;;19.60;8.48;;;410.40;2355.20;;;;;;5074422;28;20028;-77
2023/10/04 02:12:35;;;;;;;23.90;8.48;;;410.40;2355.20;;;;;;5073900;28;20123;-77
2023/10/04 02:15:01;;;;;;;16.95;8.02;;;410.50;2355.20;;;;;;5075583;28;20075;-77
2023/10/04 02:17:26;;;;;;;16.35;7.88;;;410.50;2355.20;;;;;;5074405;28;20029;-77
2023/10/04 02:19:53;;;;;;;16.52;7.30;;;435.20;2355.20;;;;;;5075562;28;20089;-77
2023/10/04 02:22:19;;;;;;;13.18;7.10;;;435.20;2355.20;;;;;;5074212;28;20036;-78
2023/10/04 02:24:45;;;;;;;16.08;8.25;;;410.50;2355.20;;;;;;5074311;28;20077;-77
2023/10/04 02:27:11;;;;;;;17.40;8.25;;;410.50;2355.20;;;;;;5075531;28;20095;-78
2023/10/04 02:29:44;;;;;;;24.80;8.35;;;410.30;2355.20;;;;;;5075266;28;20378;-77
2023/10/04 02:32:09;;;;;;;14.35;6.47;;;410.40;2355.20;;;;;;5073949;28;20505;-78
2023/10/04 02:34:36;;;;;;;19.80;7.43;;;410.50;2355.20;;;;;;5073168;28;20020;-77
2023/10/04 02:37:06;;;;;;;17.95;7.10;;;435.50;2355.20;;;;;;5075283;28;20494;-77
2023/10/04 02:39:39;;;;;;;20.40;8.00;;;435.20;2355.20;;;;;;5073696;28;20056;-77
2023/10/04 02:42:09;;;;;;;14.88;7.25;;;410.50;2355.20;;;;;;5073634;28;20127;-77
2023/10/04 02:44:39;;;;;;;21.60;8.10;;;410.50;2355.20;;;;;;5073528;28;20116;-77
2023/10/04 02:47:07;;;;;;;13.45;7.15;;;410.50;2355.20;;;;;;5073833;28;20076;-77
2023/10/04 02:49:39;;;;;;;14.52;7.35;;;435.20;2355.20;;;;;;5073836;28;20107;-77
2023/10/04 02:52:12;;;;;;;19.35;7.50;;;435.50;2355.20;;;;;;5073710;28;20090;-77
2023/10/04 02:54:41;;;;;;;18.00;7.28;;;435.50;2355.20;;;;;;5073827;28;20393;-77
2023/10/04 02:57:07;;;;;;;15.68;7.00;;;435.70;2355.20;;;;;;5073575;28;20055;-77
2023/10/04 02:59:33;;;;;;;19.50;7.25;;;435.50;2355.20;;;;;;5073170;28;20044;-77
2023/10/04 03:02:00;;;;;;;16.00;7.13;;;435.40;2355.20;;;;;;5073363;28;20032;-77
2023/10/04 03:04:26;;;;;;;15.43;6.97;;;435.50;2355.20;;;;;;5073482;28;20028;-77
2023/10/04 03:06:52;;;;;;;19.13;7.65;;;435.60;2355.20;;;;;;5073004;28;20029;-77
2023/10/04 03:09:18;;;;;;;16.10;6.97;;;435.60;2355.20;;;;;;5074659;28;20025;-77
2023/10/04 03:11:44;;;;;;;17.33;7.15;;;435.70;2355.20;;;;;;5073306;28;20123;-77
2023/10/04 03:14:12;;;;;;;16.45;7.85;;;435.80;2355.20;;;;;;5072850;28;20075;-77
2023/10/04 03:16:42;;;;;;;20.23;8.77;;;435.70;2355.20;;;;;;5072950;28;20032;-77
2023/10/04 03:19:12;;;;;;;15.18;7.47;;;435.60;2355.20;;;;;;5072101;28;20023;-77
2023/10/04 03:21:44;;;;;;;17.35;7.50;;;435.50;2355.20;;;;;;5066657;28;20108;-76
2023/10/04 03:24:10;;;;;;;17.08;7.80;;;435.60;2355.20;;;;;;5077004;28;20020;-77
2023/10/04 03:26:37;;;;;;;18.42;8.95;;;435.60;2355.20;;;;;;5091355;28;20096;-77
2023/10/04 03:29:04;;;;;;;14.35;7.35;;;435.60;2355.20;;;;;;5073620;28;20025;-77
2023/10/04 03:31:30;;;;;;;18.23;7.75;;;435.60;2355.20;;;;;;5072492;28;20017;-77
2023/10/04 03:33:56;;;;;;;14.30;7.07;;;435.60;2355.20;;;;;;5064496;28;20044;-77
2023/10/04 03:36:25;;;;;;;18.33;8.18;;;435.70;2355.20;;;;;;5068637;28;20513;-77
2023/10/04 03:38:50;;;;;;;14.00;8.10;;;435.80;2355.20;;;;;;5080048;28;20031;-77
2023/10/04 03:41:18;;;;;;;16.73;7.72;;;435.90;2355.20;;;;;;5076609;28;20045;-77
2023/10/04 03:43:44;;;;;;;16.35;7.63;;;435.70;2355.20;;;;;;5073366;28;20126;-77
2023/10/04 03:46:19;;;;;;;14.70;7.35;;;435.60;2355.20;;;;;;5072200;28;20070;-77
2023/10/04 03:48:49;;;;;;;19.05;6.95;;;435.80;2355.20;;;;;;5061132;28;20036;-77
2023/10/04 03:51:20;;;;;;;17.00;8.23;;;435.60;2355.20;;;;;;5070792;28;20019;-77
2023/10/04 03:53:46;;;;;;;19.92;7.95;;;435.40;2355.20;;;;;;5075852;28;20536;-77
2023/10/04 03:56:14;;;;;;;22.50;8.20;;;435.60;2355.20;;;;;;5075963;28;20039;-77
2023/10/04 03:58:40;;;;;;;20.55;7.95;;;435.60;2355.20;;;;;;5075444;28;20458;-77
2023/10/04 04:01:07;;;;;;;15.13;7.65;;;435.80;2355.20;;;;;;5098492;28;20036;-79
2023/10/04 04:03:34;;;;;;;16.73;7.70;;;435.60;2355.20;;;;;;5076065;28;20032;-78
2023/10/04 04:06:04;;;;;;;13.73;6.57;;;435.50;2355.20;;;;;;5079364;28;20021;-79
2023/10/04 04:08:30;;;;;;;16.75;8.57;;;435.50;2355.20;;;;;;5081457;28;20032;-79
2023/10/04 04:10:56;;;;;;;17.25;7.95;;;435.40;2355.20;;;;;;5107070;28;20036;-78
2023/10/04 04:13:23;;;;;;;17.65;8.52;;;435.40;2355.20;;;;;;5087363;28;20022;-79
2023/10/04 04:15:51;;;;;;;17.77;7.35;;;435.40;2355.20;;;;;;5085679;28;20111;-77
2023/10/04 04:18:20;;;;;;;13.77;7.68;;;435.40;2355.20;;;;;;5070837;28;20021;-79
2023/10/04 04:20:50;;;;;;;15.95;7.88;;;435.40;2355.20;;;;;;5066872;28;20093;-78
2023/10/04 04:23:16;;;;;;;18.75;7.60;;;435.40;2355.20;;;;;;5073579;28;20037;-77
2023/10/04 04:25:43;;;;;;;15.38;7.22;;;435.40;2355.20;;;;;;5071897;28;20106;-78
2023/10/04 04:28:10;;;;;;;14.95;7.90;;;435.40;2355.20;;;;;;5070474;28;20028;-78
2023/10/04 04:30:36;;;;;;;14.70;8.07;;;435.20;2355.20;;;;;;5061765;28;20107;-78
2023/10/04 04:33:07;;;;;;;17.15;8.73;;;435.20;2355.20;;;;;;5072071;28;20439;-78
2023/10/04 04:38:16;;;;;;;18.30;8.57;;;410.40;2355.20;;;;;;5071068;28;20027;-78
2023/10/04 04:40:44;;;;;;;16.20;8.93;;;410.50;2355.20;;;;;;5065747;28;20063;-79
2023/10/04 04:45:58;;;;;;;18.33;7.70;;;410.50;2355.20;;;;;;5068894;28;20107;-78
2023/10/04 04:48:26;;;;;;;19.25;8.45;;;410.40;2355.20;;;;;;5066248;28;20025;-78
2023/10/04 04:51:10;;;;;;;19.08;8.40;;;410.50;2355.20;;;;;;5071479;28;20056;-78
2023/10/04 04:53:41;;;;;;;17.02;8.60;;;410.20;2355.20;;;;;;5071999;28;20025;-78
2023/10/04 04:56:14;;;;;;;18.33;8.85;;;410.50;2355.20;;;;;;5071825;28;20028;-78
2023/10/04 04:58:41;;;;;;;19.75;8.70;;;410.10;2355.20;;;;;;5070082;28;20024;-78
2023/10/04 05:01:11;;;;;;;21.50;8.38;;;410.30;2355.20;;;;;;5072965;28;20559;-78
2023/10/04 05:03:41;;;;;;;15.90;8.70;;;410.30;2355.20;;;;;;5071389;28;20440;-77
2023/10/04 05:06:09;;;;;;;18.48;9.65;;;410.30;2355.20;;;;;;5072904;28;20028;-78
2023/10/04 05:08:36;;;;;;;28.92;11.52;;;410.30;2355.20;;;;;;5072827;28;20025;-79
2023/10/04 05:11:06;;;;;;;20.40;9.82;;;410.20;2355.20;;;;;;5071762;28;20037;-78
2023/10/04 05:13:32;;;;;;;14.88;8.85;;;410.50;2355.20;;;;;;5084739;28;20032;-78
2023/10/04 05:15:58;;;;;;;18.60;8.93;;;410.40;2355.20;;;;;;5071960;28;20051;-77
2023/10/04 05:18:23;;;;;;;16.33;9.00;;;410.50;2355.20;;;;;;5071405;28;20029;-77
2023/10/04 05:20:53;;;;;;;15.60;8.65;;;435.20;2355.20;;;;;;5071675;28;20032;-78
2023/10/04 05:23:21;;;;;;;22.25;10.02;;;435.30;2355.20;;;;;;5071334;28;20032;-77
2023/10/04 05:25:47;;;;;;;16.60;8.68;;;435.30;2355.20;;;;;;5071589;28;20479;-78
2023/10/04 05:28:13;;;;;;;22.35;9.23;;;435.30;2355.20;;;;;;5054896;28;20024;-76
2023/10/04 05:30:44;;;;;;;22.55;9.13;;;435.40;2355.20;;;;;;5072823;28;20025;-77
2023/10/04 05:33:10;;;;;;;18.58;8.93;;;435.30;2355.20;;;;;;5072384;28;20021;-76
2023/10/04 05:35:37;;;;;;;17.10;9.48;;;435.20;2355.20;;;;;;5071220;28;20104;-77
2023/10/04 05:38:07;;;;;;;18.35;9.25;;;435.20;2355.20;;;;;;5072395;28;20108;-77
2023/10/04 05:40:38;;;;;;;20.75;10.10;;;435.30;2355.20;;;;;;5071058;28;20055;-76
2023/10/04 05:43:08;;;;;;;24.85;10.65;;;435.30;2355.20;;;;;;5060642;28;20043;-75
2023/10/04 05:45:34;;;;;;;21.23;10.23;;;435.40;2355.20;;;;;;5071160;28;20025;-76
2023/10/04 05:48:00;;;;;;;20.13;10.23;;;435.30;2355.20;;;;;;5072375;28;20130;-76
2023/10/04 05:50:32;;;;;;;23.92;10.30;;;435.50;2355.20;;;;;;5071166;28;20032;-76
2023/10/04 05:52:58;;;;;;;23.88;10.68;;;435.50;2355.20;;;;;;5072372;28;20024;-76
2023/10/04 05:55:26;;;;;;;19.83;10.75;;;435.60;2355.20;;;;;;5070953;28;20054;-75
2023/10/04 05:57:52;;;;;;;21.17;11.95;;;435.60;2355.20;;;;;;5072236;28;20028;-75
2023/10/04 06:00:24;;;;;;;24.98;11.05;;;435.80;2355.20;;;;;;5070890;28;20021;-75
2023/10/04 06:03:01;;;;;;;22.92;12.27;;;436.00;2355.20;;;;;;5072091;28;20028;-75
2023/10/04 06:05:28;;;;;;;32.13;12.52;;;436.10;2355.20;;;;;;5072010;28;20023;-76
2023/10/04 06:07:55;;;;;;;21.10;11.57;;;460.80;2380.80;;;;;;5072090;28;20079;-74
2023/10/04 06:10:23;;;;;;;23.80;13.75;;;460.90;2380.80;;;;;;5073417;28;20020;-74
2023/10/04 06:12:51;;;;;;;23.63;12.07;;;461.00;2380.80;;;;;;5075633;28;20107;-74
2023/10/04 06:15:17;;;;;;;28.52;14.50;;;461.10;2380.80;;;;;;5075655;28;20012;-74
2023/10/04 06:17:52;;;;;;;25.70;14.02;;;461.30;2380.80;;;;;;5075179;28;20029;-76
2023/10/04 06:20:23;;;;;;;26.02;13.68;;;461.40;2380.80;;;;;;5075743;28;20074;-78
2023/10/04 06:22:54;;;;;;;26.75;13.32;;;461.60;2380.80;;;;;;5075303;28;20032;-77
2023/10/04 06:25:21;;;;;;;27.63;13.65;;;461.70;2380.80;;;;;;5074563;28;20056;-78
2023/10/04 06:27:51;;;;;;;24.60;13.75;;;461.70;2380.80;;;;;;5075472;28;20107;-78
2023/10/04 06:30:21;;;;;;;26.23;15.13;;;486.40;2380.80;;;;;;5074371;28;20024;-78
2023/10/04 06:32:48;;;;;;;27.10;13.98;;;486.60;2380.80;;;;;;5075389;28;20023;-79
2023/10/04 06:35:14;;;;;;;25.20;13.82;;;486.80;2380.80;;;;;;5074297;28;20120;-78
2023/10/04 06:37:39;;;;;;;22.02;13.55;;;486.90;2380.80;;;;;;5073811;28;20044;-78
2023/10/04 06:40:14;;;;;;;24.23;13.27;;;487.10;2380.80;;;;;;5075018;28;20040;-77
2023/10/04 06:42:40;;;;;;;25.63;14.15;;;487.10;2380.80;;;;;;5073876;28;20037;-76
2023/10/04 06:45:07;;;;;;;28.17;13.77;;;487.30;2380.80;;;;;;5073919;28;20024;-77
2023/10/04 06:47:34;;;;;;;26.60;13.55;;;512.10;2380.80;;;;;;5073578;28;20031;-77
2023/10/04 06:50:00;;;;;;;28.88;13.52;;;512.40;2380.80;;;;;;5073927;28;20027;-78
2023/10/04 06:52:26;;;;;;;22.75;12.27;;;512.50;2380.80;;;;;;5073803;28;20048;-77
2023/10/04 06:54:52;;;;;;;22.80;12.10;;;512.80;2380.80;;;;;;5073836;28;20478;-78
2023/10/04 06:57:18;;;;;;;24.83;12.40;;;512.80;2380.80;;;;;;5075017;28;20101;-77
2023/10/04 06:59:47;;;;;;;22.98;11.15;;;537.80;2406.40;;;;;;5074001;28;20402;-78
2023/10/04 07:02:13;;;;;;;21.23;10.68;;;;;;;;;;5075706;28;20024;-78
2023/10/04 07:04:39;;;;;;;19.88;9.55;;;538.10;2406.40;;;;;;5075076;28;20154;-78
2023/10/04 07:07:04;;;;;;;17.38;9.68;;;538.50;2406.40;;;;;;5074000;28;20475;-78
2023/10/04 07:09:30;;;;;;;20.17;8.93;;;538.50;2406.40;;;;;;5073659;28;20031;-78
2023/10/04 07:11:56;;;;;;;21.05;8.48;;;563.30;2432.00;;;;;;5073366;28;20770;-78
2023/10/04 07:14:21;;;;;;;19.10;8.95;;;563.40;2432.00;;;;;;5073208;28;20147;-78
2023/10/04 07:16:47;;;;;;;18.48;7.93;;;563.70;2432.00;;;;;;5087411;28;20484;-78
2023/10/04 07:19:14;;;;;;;24.50;8.57;;;;;;;;;;5073364;28;20113;-78
2023/10/04 07:21:40;;;;;;;18.92;8.65;;;563.90;2432.00;;;;;;5073225;28;20039;-77
2023/10/04 07:24:06;;;;;;;15.23;7.20;;;;;;;;;;5075186;28;20103;-78
2023/10/04 07:26:35;;;;;;;13.88;7.28;;;588.90;2432.00;;;;;;5072790;28;20027;-76
2023/10/04 07:29:02;;;;;;;18.10;7.65;;;589.10;2432.00;;;;;;5074429;28;20557;-77
2023/10/04 07:31:31;;;;;;;16.45;6.95;;;589.10;2432.00;;;;;;5072938;28;20025;-77
2023/10/04 07:33:56;;;;;;;16.70;6.43;;;589.10;2432.00;;;;;;5074115;28;20024;-77
2023/10/04 07:36:22;;;;;;;15.00;6.18;;;589.40;2432.00;;;;;;5061004;28;20027;-77
2023/10/04 07:38:48;;;;;;;17.98;6.95;;;589.30;2432.00;;;;;;5074262;28;20099;-80
2023/10/04 07:41:15;;;;;;;13.98;6.65;;;589.20;2432.00;;;;;;5074171;28;20052;-78
2023/10/04 07:43:41;;;;;;;17.90;5.90;;;589.20;2432.00;;;;;;5094568;28;20044;-79
2023/10/04 07:46:07;;;;;;;13.25;5.93;;;589.40;2432.00;;;;;;5084590;28;20544;-76
2023/10/04 07:48:35;;;;;;;15.70;5.93;;;589.40;2432.00;;;;;;5071554;28;20024;-77
2023/10/04 07:51:01;;;;;;;17.42;6.50;;;589.40;2432.00;;;;;;5073294;28;20480;-77
2023/10/04 07:53:27;;;;;;;14.82;6.18;;;589.40;2432.00;;;;;;5071739;28;20082;-75
2023/10/04 07:55:53;;;;;;;15.70;6.47;;;589.50;2432.00;;;;;;5073388;28;20051;-78
2023/10/04 07:58:19;;;;;;;13.55;6.60;;;589.70;2432.00;;;;;;5072676;28;20074;-78
2023/10/04 08:00:45;;;;;;;14.45;6.13;;;589.70;2406.40;;;;;;5072350;28;20048;-79
2023/10/04 08:03:11;;;;;;;16.38;5.85;;;614.40;2380.80;;;;;;5070632;28;20067;-78
2023/10/04 08:05:39;;;;;;;14.30;5.63;;;589.70;2355.20;;;;;;5071734;28;20050;-78
2023/10/04 08:08:05;;;;;;;17.58;6.60;;;589.70;2380.80;;;;;;5072901;28;20048;-77
2023/10/04 08:10:33;;;;;;;14.90;6.40;;;614.40;2380.80;;;;;;5072034;28;20044;-77
2023/10/04 08:13:00;;;;;;;11.45;6.32;;;589.50;2406.40;;;;;;5073504;28;20496;-76
2023/10/04 08:15:28;;;;;;;15.65;6.75;;;589.20;2432.00;;;;;;5072212;28;20127;-76
2023/10/04 08:17:55;;;;;;;10.68;6.00;;;589.20;2432.00;;;;;;5073233;28;20017;-76
2023/10/04 08:20:23;;;;;;;12.20;6.10;;;589.20;2406.40;;;;;;5073412;28;20532;-77
2023/10/04 08:22:49;;;;;;;13.52;5.30;;;589.40;2406.40;;;;;;5072974;28;20064;-77
2023/10/04 08:25:16;;;;;;;12.20;5.95;;;614.40;2355.20;;;;;;5072084;28;20040;-78
2023/10/04 08:27:43;;;;;;;12.23;5.85;;;;;;;;;;5072055;28;20489;-77
2023/10/04 08:30:14;;;;;;;10.10;5.68;;;614.90;2304.00;;;;;;5071985;28;20029;-78
2023/10/04 08:32:41;;;;;;;12.63;5.78;;;615.10;2278.40;;;;;;5072123;28;20024;-77
2023/10/04 08:35:21;;;;;;;14.85;6.10;;;615.20;2201.60;;;;;;5073481;28;20492;-77
2023/10/04 08:37:53;;;;;;;11.80;6.35;;;640.00;2176.00;;;;;;5072888;28;20012;-77
2023/10/04 08:40:20;;;;;;;10.35;5.35;;;615.30;2201.60;;;;;;5071583;28;20443;-77
2023/10/04 08:57:39;;;;;;;14.85;6.35;;;640.00;2124.80;;;;;;5046357;27;1488805;-79
2023/10/04 09:00:17;;;;;;;16.08;5.72;;;665.90;1996.80;;;;;;5050894;28;20032;-78
2023/10/04 09:02:45;;;;;;;9.65;4.75;;;666.00;1996.80;;;;;;5082312;28;20017;-79
2023/10/04 09:05:16;;;;;;;15.35;5.75;;;666.00;1945.60;;;;;;5068827;28;20489;-80
2023/10/04 09:07:45;;;;;;;14.10;5.07;;;666.00;1945.60;;;;;;5054160;28;20098;-80
2023/10/04 09:10:15;;;;;;;11.23;5.28;;;666.20;1920.00;;;;;;5061215;28;20389;-79
2023/10/04 09:12:42;;;;;;;13.55;5.53;;;666.30;1920.00;;;;;;5053118;28;20024;-78
2023/10/04 09:15:13;;;;;;;11.70;5.20;;;666.50;1894.40;;;;;;5069038;28;20497;-78
2023/10/04 09:17:47;;;;;;;11.68;5.05;;;666.50;1868.80;;;;;;5067979;28;20217;-78
2023/10/04 09:20:16;;;;;;;11.75;5.32;;;691.20;1843.20;;;;;;5069084;28;20492;-78
2023/10/04 09:22:43;;;;;;;12.50;4.70;;;691.40;1817.60;;;;;;5069827;28;20051;-78
2023/10/04 09:25:10;;;;;;;10.38;4.40;;;691.60;1817.60;;;;;;5068058;28;20067;-78
2023/10/04 09:27:37;;;;;;;8.40;4.22;;;691.70;1817.60;;;;;;5088483;28;20024;-79
2023/10/04 09:30:25;;;;;;;8.57;4.60;;;691.80;1792.00;;;;;;5066941;28;20017;-78
2023/10/04 09:32:52;;;;;;;9.98;4.25;;;692.00;1766.40;;;;;;5087265;28;20031;-78
2023/10/04 09:35:21;;;;;;;9.52;4.22;;;716.80;1766.40;;;;;;5061409;28;20028;-78
2023/10/04 09:37:50;;;;;;;12.50;4.47;;;716.90;1792.00;;;;;;5084478;28;20575;-79
2023/10/04 09:40:17;;;;;;;16.88;4.90;;;717.20;1740.80;;;;;;5070412;28;20107;-78
2023/10/04 09:42:53;;;;;;;8.98;3.75;;;717.10;1740.80;;;;;;5052777;28;20029;-79
2023/10/04 09:45:31;;;;;;;33.53;6.20;;;717.20;1740.80;;;;;;5079891;28;20036;-79
2023/10/04 09:48:02;;;;;;;15.70;4.53;;;717.40;1715.20;;;;;;5065510;28;20021;-80
2023/10/04 09:50:28;;;;;;;20.90;5.53;;;717.50;1664.00;;;;;;5081620;28;20052;-79
2023/10/04 09:52:54;;;;;;;20.65;4.90;;;717.50;1689.60;;;;;;5088167;28;20017;-79
2023/10/04 09:55:22;;;;;;;8.50;3.88;;;717.70;1664.00;;;;;;5056298;28;20378;-79
2023/10/04 09:57:49;;;;;;;18.90;4.75;;;742.40;1664.00;;;;;;5053783;28;20045;-79
2023/10/04 10:00:18;;;;;;;12.02;4.53;;;742.40;1689.60;;;;;;5068899;28;20031;-79
2023/10/04 10:02:51;;;;;;;11.43;4.35;;;742.50;1664.00;;;;;;5065941;28;20017;-79
2023/10/04 10:05:40;;;;;;;11.13;3.72;;;742.80;1638.40;;;;;;5057146;28;20036;-79
2023/10/04 10:08:12;;;;;;;8.65;3.60;;;742.80;1612.80;;;;;;5056776;28;20060;-79
2023/10/04 10:10:43;;;;;;;13.65;3.35;;;742.80;1612.80;;;;;;5043107;28;20173;-79
2023/10/04 10:13:09;;;;;;;5.35;2.63;;;743.00;1612.80;;;;;;5040617;28;20025;-78
2023/10/04 10:15:38;;;;;;;5.43;2.72;;;742.80;1510.40;;;;;;5055871;28;20043;-78
2023/10/04 10:18:07;;;;;;;5.63;3.00;;;743.10;1484.80;;;;;;5066413;28;20056;-79
2023/10/04 10:20:33;;;;;;;6.72;2.95;;;743.10;1484.80;;;;;;5047818;28;20060;-77
2023/10/04 10:22:58;;;;;;;8.00;3.25;;;743.10;1510.40;;;;;;5057291;28;20075;-79
2023/10/04 10:25:25;;;;;;;6.97;3.00;;;743.10;1536.00;;;;;;5045043;28;20045;-79
2023/10/04 10:27:56;;;;;;;5.60;2.72;;;768.00;1484.80;;;;;;5072286;28;20032;-78
2023/10/04 10:30:23;;;;;;;5.53;2.60;;;743.30;1484.80;;;;;;5040032;28;20523;-78
2023/10/04 10:32:55;;;;;;;5.40;2.67;;;768.10;1484.80;;;;;;5062648;28;20029;-79
2023/10/04 10:35:48;;;;;;;6.65;2.83;;;768.40;1459.20;;;;;;5052609;28;20073;-78
2023/10/04 10:38:43;;;;;;;9.63;3.42;;;768.60;1408.00;;;;;;5069985;28;20067;-78
2023/10/04 10:41:32;;;;;;;7.55;3.60;;;768.30;1459.20;;;;;;5059591;28;20017;-79
2023/10/04 10:44:19;;;;;;;11.38;3.20;;;768.60;1459.20;;;;;;5046278;28;20479;-78
2023/10/04 10:46:55;;;;;;;8.40;2.67;;;768.30;1433.60;;;;;;5069304;28;20025;-78
2023/10/04 10:49:49;;;;;;;9.45;3.40;;;768.00;1510.40;;;;;;5054341;28;20035;-78
2023/10/04 10:52:24;;;;;;;5.18;3.03;;;768.60;1459.20;;;;;;5013107;28;20042;-78
2023/10/04 10:54:55;;;;;;;7.72;3.10;;;768.90;1433.60;;;;;;4999806;28;20079;-79
2023/10/04 10:57:22;;;;;;;9.02;3.58;;;768.90;1433.60;;;;;;5024766;28;20052;-77
2023/10/04 10:59:53;;;;;;;9.60;4.22;;;768.60;1433.60;;;;;;5028236;28;20041;-80
2023/10/04 11:02:19;;;;;;;10.80;3.67;;;793.60;1433.60;;;;;;5003595;28;20025;-79
2023/10/04 11:04:45;;;;;;;5.30;3.00;;;768.90;1408.00;;;;;;5032572;28;20463;-79
2023/10/04 11:07:11;;;;;;;8.98;2.85;;;794.00;1433.60;;;;;;5015753;28;20049;-79
2023/10/04 11:09:42;;;;;;;5.18;2.72;;;793.90;1408.00;;;;;;5004626;28;20037;-79
2023/10/04 11:12:09;;;;;;;8.13;2.90;;;793.90;1408.00;;;;;;5006399;28;20052;-77
2023/10/04 11:14:36;;;;;;;8.88;3.53;;;794.00;1382.40;;;;;;5019255;28;20022;-77
2023/10/04 11:17:06;;;;;;;6.10;3.28;;;793.70;1408.00;;;;;;5018951;28;20029;-79
2023/10/04 11:19:34;;;;;;;6.95;2.67;;;768.70;1382.40;;;;;;5013275;28;20486;-79
2023/10/04 11:22:01;;;;;;;7.70;3.05;;;768.20;1408.00;;;;;;5018897;28;20040;-80
2023/10/04 11:24:27;;;;;;;7.15;3.00;;;743.30;1408.00;;;;;;5021082;28;20037;-79
2023/10/04 11:26:59;;;;;;;11.30;3.42;;;743.30;1382.40;;;;;;5002776;28;20037;-81
2023/10/04 11:29:30;;;;;;;7.82;2.50;;;743.10;1408.00;;;;;;5025380;28;20081;-75
2023/10/04 11:31:57;;;;;;;5.05;2.97;;;742.90;1433.60;;;;;;5061616;28;20021;-77
2023/10/04 11:34:23;;;;;;;7.13;2.55;;;742.90;1408.00;;;;;;5064119;28;20025;-77
2023/10/04 11:36:48;;;;;;;6.25;2.92;;;742.60;1433.60;;;;;;5067017;28;20025;-77
2023/10/04 11:39:18;;;;;;;7.68;2.70;;;742.60;1433.60;;;;;;5062739;28;20025;-76
2023/10/04 11:41:51;;;;;;;5.38;2.63;;;742.50;1459.20;;;;;;5042342;28;20028;-77
2023/10/04 11:44:19;;;;;;;5.35;2.90;;;717.70;1433.60;;;;;;5054910;28;20482;-76
2023/10/04 11:46:58;;;;;;;10.27;2.42;;;717.60;1484.80;;;;;;5049537;28;20041;-76
2023/10/04 11:49:28;;;;;;;10.43;3.53;;;717.50;1459.20;;;;;;5065494;28;20096;-77
2023/10/04 11:51:58;;;;;;;12.20;3.35;;;717.50;1484.80;;;;;;5067736;28;20032;-77
2023/10/04 11:54:26;;;;;;;10.43;3.05;;;717.40;1484.80;;;;;;5070030;28;20025;-76
2023/10/04 11:56:52;;;;;;;8.05;2.78;;;717.50;1484.80;;;;;;5071364;28;20048;-78
2023/10/04 11:59:32;;;;;;;9.77;3.45;;;717.30;1484.80;;;;;;5071080;28;20513;-75
2023/10/04 12:01:58;;;;;;;6.93;2.40;;;717.20;1510.40;;;;;;5047237;28;20024;-76
2023/10/04 12:04:24;;;;;;;9.73;2.85;;;717.30;1510.40;;;;;;5054460;28;20059;-77
2023/10/04 12:06:59;;;;;;;11.15;3.63;;;717.50;1484.80;;;;;;5067819;28;20117;-78
2023/10/04 12:09:27;;;;;;;;;;;717.30;1510.40;;;;;;5066314;28;20422;-78
2023/10/04 12:11:56;;;;;;;8.13;2.95;;;717.20;1536.00;;;;;;5067663;28;19915;-77
2023/10/04 12:14:23;;;;;;;7.13;2.83;;;716.90;1510.40;;;;;;5042782;28;20147;-78
2023/10/04 12:16:49;;;;;;;6.30;2.63;;;717.10;1484.80;;;;;;5045036;28;20020;-78
2023/10/04 12:19:15;;;;;;;7.47;2.40;;;717.20;1459.20;;;;;;5050076;28;20021;-78
2023/10/04 12:21:41;;;;;;;10.90;2.88;;;717.30;1484.80;;;;;;5072735;28;20509;-80
2023/10/04 12:24:09;;;;;;;10.98;2.85;;;717.20;1484.80;;;;;;5062652;28;20115;-77
2023/10/04 12:26:35;;;;;;;10.95;2.85;;;717.20;1510.40;;;;;;5053105;28;20494;-78
2023/10/04 12:29:07;;;;;;;12.63;3.53;;;717.10;1484.80;;;;;;5049382;28;20052;-78
2023/10/04 12:31:33;;;;;;;11.05;3.90;;;717.10;1510.40;;;;;;5058883;28;20390;-77
2023/10/04 12:33:59;;;;;;;15.43;4.03;;;716.90;1510.40;;;;;;5050186;28;20032;-77
2023/10/04 12:36:25;;;;;;;9.77;3.95;;;716.80;1510.40;;;;;;5037496;28;20389;-77
2023/10/04 12:38:51;;;;;;;7.20;3.20;;;716.80;1561.60;;;;;;5051197;28;20040;-78